createdAt,value
2023-05-12T00:00:05.335Z,99.97
2023-05-12T00:02:34.457Z,99.57
2023-05-12T00:05:02.825Z,100.00
2023-05-12T00:07:31.251Z,100.00
2023-05-12T00:09:59.770Z,100.00
2023-05-12T00:12:28.172Z,99.33
2023-05-12T00:14:56.946Z,98.29
2023-05-12T00:17:28.053Z,97.58
2023-05-12T00:19:56.556Z,97.59
2023-05-12T00:22:26.870Z,97.75
2023-05-12T00:24:55.162Z,98.21
2023-05-12T00:27:23.731Z,97.84
2023-05-12T00:29:52.005Z,97.26
2023-05-12T00:32:21.285Z,96.49
2023-05-12T00:34:51.718Z,96.63
2023-05-12T00:37:20.132Z,97.43
2023-05-12T00:39:48.768Z,97.61
2023-05-12T00:42:17.281Z,97.64
2023-05-12T00:44:45.674Z,99.47
2023-05-12T00:47:14.108Z,100.00
2023-05-12T00:49:42.920Z,100.00
2023-05-12T00:52:12.817Z,99.07
2023-05-12T00:54:43.729Z,98.90
2023-05-12T00:57:12.562Z,98.72
2023-05-12T00:59:40.873Z,96.89
2023-05-12T01:02:09.245Z,97.32
2023-05-12T01:04:43.144Z,95.95
2023-05-12T01:07:19.519Z,95.32
2023-05-12T01:09:48.037Z,94.99
2023-05-12T01:12:16.343Z,94.99
2023-05-12T01:14:44.518Z,94.29
2023-05-12T01:17:15.192Z,94.26
2023-05-12T01:19:49.453Z,94.36
2023-05-12T01:22:20.166Z,94.07
2023-05-12T01:24:52.620Z,93.31
2023-05-12T01:27:25.500Z,93.08
2023-05-12T01:29:54.517Z,92.19
2023-05-12T01:32:24.134Z,91.78
2023-05-12T01:34:53.869Z,90.98
2023-05-12T01:37:22.454Z,91.18
2023-05-12T01:39:51.086Z,91.04
2023-05-12T01:42:19.253Z,90.84
2023-05-12T01:44:49.344Z,90.40
2023-05-12T01:47:17.609Z,89.99
2023-05-12T01:49:46.379Z,89.70
2023-05-12T01:52:14.664Z,89.26
2023-05-12T01:54:45.568Z,88.66
2023-05-12T01:57:16.511Z,88.75
2023-05-12T01:59:44.852Z,88.63
2023-05-12T02:02:14.510Z,88.87
2023-05-12T02:04:43.362Z,88.56
2023-05-12T02:07:11.826Z,89.01
2023-05-12T02:09:39.987Z,89.04
2023-05-12T02:12:09.421Z,89.05
2023-05-12T02:14:37.696Z,88.90
2023-05-12T02:17:05.876Z,88.84
2023-05-12T02:19:35.501Z,88.50
2023-05-12T02:22:05.769Z,88.09
2023-05-12T02:24:34.099Z,88.13
2023-05-12T02:27:02.914Z,87.88
2023-05-12T02:29:31.755Z,87.54
2023-05-12T02:31:59.988Z,87.59
2023-05-12T02:34:28.441Z,87.65
2023-05-12T02:36:58.619Z,87.44
2023-05-12T02:39:26.859Z,87.59
2023-05-12T02:41:55.310Z,87.71
2023-05-12T02:44:25.906Z,87.57
2023-05-12T02:46:54.449Z,87.96
2023-05-12T02:49:22.859Z,87.93
2023-05-12T02:51:51.501Z,88.35
2023-05-12T02:54:21.588Z,89.49
2023-05-12T02:56:49.950Z,89.98
2023-05-12T02:59:18.256Z,90.78
2023-05-12T03:01:46.576Z,91.69
2023-05-12T03:04:15.241Z,91.91
2023-05-12T03:06:43.471Z,92.56
2023-05-12T03:09:11.851Z,92.96
2023-05-12T03:11:41.834Z,93.85
2023-05-12T03:14:10.129Z,94.27
2023-05-12T03:16:40.582Z,94.82
2023-05-12T03:19:12.144Z,95.32
2023-05-12T03:21:40.477Z,94.51
2023-05-12T03:24:11.629Z,94.18
2023-05-12T03:26:41.655Z,94.22
2023-05-12T03:29:09.811Z,94.96
2023-05-12T03:31:38.402Z,94.83
2023-05-12T03:34:07.084Z,95.02
2023-05-12T03:36:35.332Z,94.89
2023-05-12T03:39:03.968Z,95.04
2023-05-12T03:41:34.742Z,94.90
2023-05-12T03:44:05.743Z,94.52
2023-05-12T03:46:34.219Z,94.24
2023-05-12T03:49:02.837Z,93.89
2023-05-12T03:51:32.086Z,94.43
2023-05-12T03:54:01.082Z,94.54
2023-05-12T03:56:29.762Z,94.75
2023-05-12T03:58:58.785Z,94.68
2023-05-12T04:01:28.838Z,94.65
2023-05-12T04:03:57.643Z,94.90
2023-05-12T04:06:26.195Z,95.34
2023-05-12T04:08:54.522Z,94.77
2023-05-12T04:11:23.702Z,94.69
2023-05-12T04:13:52.228Z,94.36
2023-05-12T04:16:21.084Z,93.46
2023-05-12T04:18:51.303Z,93.37
2023-05-12T04:21:19.808Z,93.38
2023-05-12T04:23:48.221Z,93.47
2023-05-12T04:26:16.856Z,93.50
2023-05-12T04:28:45.083Z,93.03
2023-05-12T04:31:15.568Z,93.08
2023-05-12T04:33:45.300Z,92.95
2023-05-12T04:36:16.784Z,92.76
2023-05-12T04:38:44.980Z,92.76
2023-05-12T04:41:13.428Z,92.24
2023-05-12T04:46:12.904Z,92.13
2023-05-12T04:48:43.456Z,92.33
2023-05-12T04:51:11.826Z,92.23
2023-05-12T04:53:43.549Z,91.85
2023-05-12T04:56:12.057Z,92.00
2023-05-12T04:58:40.522Z,91.85
2023-05-12T05:01:09.126Z,91.11
2023-05-12T05:03:37.570Z,90.73
2023-05-12T05:06:06.223Z,90.58
2023-05-12T05:08:34.685Z,90.17
2023-05-12T05:11:04.496Z,89.97
2023-05-12T05:13:33.084Z,90.06
2023-05-12T05:16:01.697Z,89.95
2023-05-12T05:18:30.572Z,89.61
2023-05-12T05:20:59.371Z,89.27
2023-05-12T05:23:27.652Z,89.48
2023-05-12T05:25:59.963Z,89.01
2023-05-12T05:28:29.785Z,88.98
2023-05-12T05:30:58.128Z,88.68
2023-05-12T05:33:26.845Z,88.40
2023-05-12T05:35:56.961Z,88.30
2023-05-12T05:38:27.586Z,88.13
2023-05-12T05:40:58.202Z,87.66
2023-05-12T05:43:26.842Z,87.72
2023-05-12T05:45:59.937Z,87.33
2023-05-12T05:48:28.659Z,87.17
2023-05-12T05:50:56.909Z,87.08
2023-05-12T05:53:25.457Z,87.10
2023-05-12T05:55:53.822Z,86.08
2023-05-12T05:58:22.620Z,86.01
2023-05-12T06:00:51.756Z,85.40
2023-05-12T06:03:22.331Z,84.79
2023-05-12T06:05:51.917Z,85.33
2023-05-12T06:08:20.523Z,84.74
2023-05-12T06:10:50.480Z,84.64
2023-05-12T06:13:21.758Z,84.01
2023-05-12T06:15:51.105Z,84.08
2023-05-12T06:18:23.897Z,83.72
2023-05-12T06:20:52.081Z,83.66
2023-05-12T06:23:20.261Z,83.28
2023-05-12T06:25:50.754Z,82.47
2023-05-12T06:28:18.889Z,82.64
2023-05-12T06:30:47.393Z,82.27
2023-05-12T06:33:15.967Z,81.59
2023-05-12T06:35:45.567Z,81.50
2023-05-12T06:38:14.153Z,81.01
2023-05-12T06:40:42.718Z,80.81
2023-05-12T06:43:11.055Z,79.53
2023-05-12T06:45:39.448Z,79.77
2023-05-12T06:48:09.660Z,79.75
2023-05-12T06:50:38.171Z,79.25
2023-05-12T06:53:08.695Z,79.07
2023-05-12T06:55:37.685Z,79.21
2023-05-12T06:58:05.913Z,78.31
2023-05-12T07:00:34.243Z,77.88
2023-05-12T07:03:06.092Z,77.44
2023-05-12T07:05:34.701Z,77.34
2023-05-12T07:08:08.755Z,76.74
2023-05-12T07:10:38.672Z,76.88
2023-05-12T07:13:07.061Z,76.57
2023-05-12T07:15:36.748Z,76.57
2023-05-12T07:18:05.266Z,76.32
2023-05-12T07:20:33.877Z,75.94
2023-05-12T07:23:05.645Z,74.55
2023-05-12T07:25:36.713Z,74.03
2023-05-12T07:28:05.735Z,74.87
2023-05-12T07:30:34.711Z,74.17
2023-05-12T07:33:03.916Z,74.36
2023-05-12T07:35:34.222Z,74.10
2023-05-12T07:38:03.589Z,73.20
2023-05-12T07:40:33.073Z,73.85
2023-05-12T07:43:07.705Z,72.54
2023-05-12T07:45:36.884Z,72.93
2023-05-12T07:48:05.736Z,74.30
2023-05-12T07:50:34.168Z,73.26
2023-05-12T07:53:06.014Z,72.82
2023-05-12T07:55:35.166Z,69.64
2023-05-12T07:58:07.883Z,69.46
2023-05-12T08:00:36.775Z,66.26
2023-05-12T08:03:11.669Z,65.48
2023-05-12T08:05:40.215Z,64.46
2023-05-12T08:08:09.861Z,61.32
2023-05-12T08:10:38.278Z,60.13
2023-05-12T08:13:08.831Z,56.80
2023-05-12T08:15:37.926Z,55.09
2023-05-12T08:18:10.617Z,54.28
2023-05-12T08:20:40.520Z,53.67
2023-05-12T08:23:09.068Z,52.13
2023-05-12T08:25:42.632Z,51.02
2023-05-12T08:28:13.523Z,49.56
2023-05-12T08:30:44.898Z,50.18
2023-05-12T08:33:15.757Z,49.45
2023-05-12T08:35:45.912Z,48.72
2023-05-12T08:38:14.719Z,48.45
2023-05-12T08:40:49.534Z,47.70
2023-05-12T08:43:26.850Z,46.58
2023-05-12T08:45:58.721Z,47.34
2023-05-12T08:48:30.977Z,43.76
2023-05-12T08:51:03.265Z,43.91
2023-05-12T08:53:35.006Z,42.31
2023-05-12T08:58:46.103Z,38.30
2023-05-12T09:01:18.096Z,37.19
2023-05-12T09:03:47.919Z,38.24
2023-05-12T09:06:17.791Z,36.86
2023-05-12T09:08:48.419Z,36.93
2023-05-12T09:11:19.696Z,36.93
2023-05-12T09:14:07.809Z,35.17
2023-05-12T09:16:43.393Z,34.84
2023-05-12T09:19:20.047Z,35.02
2023-05-12T09:21:50.780Z,36.01
2023-05-12T09:24:19.500Z,36.62
2023-05-12T09:26:51.120Z,37.08
2023-05-12T09:29:31.243Z,36.51
2023-05-12T09:32:03.875Z,36.83
2023-05-12T09:34:36.171Z,53.68
2023-05-12T09:37:07.830Z,61.76
2023-05-12T09:39:38.422Z,63.69
2023-05-12T09:42:15.186Z,62.90
2023-05-12T09:44:49.565Z,64.56
2023-05-12T09:47:24.712Z,65.73
2023-05-12T09:49:55.501Z,63.97
2023-05-12T09:52:24.826Z,65.16
2023-05-12T09:54:54.577Z,64.38
2023-05-12T09:57:27.472Z,59.65
2023-05-12T09:59:58.950Z,52.75
2023-05-12T10:02:30.249Z,51.43
2023-05-12T10:08:05.113Z,49.16
2023-05-12T10:10:35.675Z,47.02
2023-05-12T10:13:04.980Z,48.27
2023-05-12T10:15:38.328Z,46.56
2023-05-12T10:18:07.745Z,44.98
2023-05-12T10:20:42.333Z,41.89
2023-05-12T10:23:13.833Z,46.41
2023-05-12T10:25:46.096Z,44.58
2023-05-12T10:28:17.152Z,43.32
2023-05-12T10:30:49.726Z,41.20
2023-05-12T10:33:19.492Z,41.08
2023-05-12T10:35:49.650Z,41.63
2023-05-12T10:38:20.038Z,40.11
2023-05-12T10:40:58.689Z,39.00
2023-05-12T10:43:29.934Z,39.42
2023-05-12T10:46:21.145Z,37.57
2023-05-12T10:48:57.384Z,38.63
2023-05-12T10:51:29.198Z,38.55
2023-05-12T10:54:02.932Z,38.86
2023-05-12T10:56:33.573Z,38.89
2023-05-12T10:59:19.576Z,37.30
2023-05-12T11:02:03.991Z,38.53
2023-05-12T11:04:43.474Z,37.88
2023-05-12T11:07:15.698Z,39.02
2023-05-12T11:09:57.860Z,39.32
2023-05-12T11:12:33.218Z,41.18
2023-05-12T11:15:11.578Z,46.29
2023-05-12T11:17:42.677Z,48.30
2023-05-12T11:20:12.634Z,50.24
2023-05-12T11:22:43.589Z,50.24
2023-05-12T11:25:13.031Z,53.53
2023-05-12T11:27:48.064Z,58.72
2023-05-12T11:30:28.671Z,62.31
2023-05-12T11:33:11.158Z,61.76
2023-05-12T11:35:39.908Z,56.03
2023-05-12T11:41:26.668Z,53.41
2023-05-12T11:43:55.421Z,51.91
2023-05-12T11:46:27.716Z,50.72
2023-05-12T11:48:58.838Z,51.77
2023-05-12T11:51:28.404Z,52.45
2023-05-12T11:53:57.565Z,51.19
2023-05-12T11:56:26.931Z,51.38
2023-05-12T11:58:59.981Z,52.07
2023-05-12T12:01:28.689Z,51.84
2023-05-12T12:03:59.061Z,51.97
2023-05-12T12:06:27.719Z,52.42
2023-05-12T12:08:57.436Z,51.20
2023-05-12T12:11:28.635Z,50.85
2023-05-12T12:13:57.800Z,51.60
2023-05-12T12:16:26.895Z,52.50
2023-05-12T12:18:55.397Z,52.99
2023-05-12T12:21:26.528Z,51.98
2023-05-12T12:23:54.963Z,51.93
2023-05-12T12:26:23.395Z,52.57
2023-05-12T12:28:51.646Z,53.40
2023-05-12T12:31:20.096Z,57.18
2023-05-12T12:33:48.733Z,58.06
2023-05-12T12:36:16.912Z,56.05
2023-05-12T12:38:47.451Z,60.49
2023-05-12T12:41:15.596Z,62.18
2023-05-12T12:43:44.694Z,63.62
2023-05-12T12:46:13.190Z,63.67
2023-05-12T12:48:41.664Z,64.12
2023-05-12T12:51:10.369Z,64.19
2023-05-12T12:53:39.229Z,63.80
2023-05-12T12:56:09.218Z,64.79
2023-05-12T12:58:37.760Z,66.65
2023-05-12T13:01:06.816Z,66.54
2023-05-12T13:03:35.113Z,66.74
2023-05-12T13:06:03.445Z,68.28
2023-05-12T13:08:32.232Z,69.38
2023-05-12T13:11:01.010Z,69.77
2023-05-12T13:13:31.518Z,68.72
2023-05-12T13:15:59.821Z,68.58
2023-05-12T13:18:27.980Z,68.22
2023-05-12T13:20:56.298Z,67.65
2023-05-12T13:23:25.418Z,67.65
2023-05-12T13:25:53.598Z,67.27
2023-05-12T13:28:21.853Z,66.38
2023-05-12T13:30:53.951Z,65.04
2023-05-12T13:33:22.477Z,63.21
2023-05-12T13:35:50.735Z,64.00
2023-05-12T13:38:20.156Z,63.19
2023-05-12T13:40:48.318Z,63.11
2023-05-12T13:43:17.669Z,62.75
2023-05-12T13:45:46.067Z,61.22
2023-05-12T13:48:16.381Z,59.78
2023-05-12T13:50:44.758Z,60.39
2023-05-12T13:53:13.597Z,59.16
2023-05-12T13:55:41.808Z,58.49
2023-05-12T13:58:10.113Z,56.95
2023-05-12T14:00:38.583Z,57.60
2023-05-12T14:03:10.165Z,57.45
2023-05-12T14:05:40.840Z,57.09
2023-05-12T14:08:09.288Z,57.70
2023-05-12T14:10:37.724Z,55.64
2023-05-12T14:13:08.532Z,54.80
2023-05-12T14:15:48.751Z,55.47
2023-05-12T14:18:18.391Z,54.64
2023-05-12T14:20:48.480Z,53.94
2023-05-12T14:23:16.950Z,54.15
2023-05-12T14:25:47.594Z,52.66
2023-05-12T14:28:15.913Z,52.31
2023-05-12T14:30:45.655Z,52.25
2023-05-12T14:33:14.247Z,51.96
2023-05-12T14:35:44.740Z,51.74
2023-05-12T14:38:17.972Z,52.70
2023-05-12T14:40:47.512Z,52.00
2023-05-12T14:43:15.733Z,51.77
2023-05-12T14:45:44.745Z,52.07
2023-05-12T14:48:13.117Z,51.99
2023-05-12T14:50:44.042Z,51.32
2023-05-12T14:53:12.384Z,48.57
2023-05-12T14:55:42.232Z,49.06
2023-05-12T14:58:10.524Z,48.22
2023-05-12T15:00:41.097Z,49.01
2023-05-12T15:03:09.424Z,49.01
2023-05-12T15:05:56.874Z,47.67
2023-05-12T15:08:28.181Z,47.11
2023-05-12T15:11:03.662Z,47.71
2023-05-12T15:13:35.068Z,46.91
2023-05-12T15:16:04.934Z,46.75
2023-05-12T15:18:33.295Z,46.12
2023-05-12T15:21:01.596Z,46.37
2023-05-12T15:23:30.344Z,46.29
2023-05-12T15:26:10.550Z,45.55
2023-05-12T15:28:44.071Z,46.14
2023-05-12T15:31:12.477Z,46.12
2023-05-12T15:33:51.583Z,45.67
2023-05-12T15:36:19.971Z,45.75
2023-05-12T15:38:48.296Z,46.37
2023-05-12T15:41:18.007Z,46.43
2023-05-12T15:43:46.378Z,46.72
2023-05-12T15:46:14.594Z,46.27
2023-05-12T15:48:45.483Z,46.26
2023-05-12T15:51:14.255Z,45.76
2023-05-12T15:53:42.472Z,45.99
2023-05-12T15:56:13.781Z,46.37
2023-05-12T15:58:44.037Z,45.82
2023-05-12T16:01:14.044Z,46.12
2023-05-12T16:03:42.829Z,48.04
2023-05-12T16:06:12.671Z,50.22
2023-05-12T16:08:42.825Z,51.07
2023-05-12T16:11:13.461Z,51.27
2023-05-12T16:13:43.616Z,51.43
2023-05-12T16:16:12.347Z,51.61
2023-05-12T16:18:41.584Z,51.91
2023-05-12T16:21:09.898Z,52.23
2023-05-12T16:23:38.450Z,52.50
2023-05-12T16:26:06.898Z,51.30
2023-05-12T16:28:39.104Z,50.67
2023-05-12T16:31:08.870Z,49.54
2023-05-12T16:33:37.661Z,49.70
2023-05-12T16:36:06.951Z,49.43
2023-05-12T16:38:36.892Z,49.33
2023-05-12T16:41:05.325Z,49.68
2023-05-12T16:43:33.896Z,49.28
2023-05-12T16:46:04.253Z,49.64
2023-05-12T16:48:36.989Z,49.42
2023-05-12T16:51:07.024Z,49.63
2023-05-12T16:53:35.683Z,49.41
2023-05-12T16:56:05.994Z,49.55
2023-05-12T16:58:34.556Z,49.73
2023-05-12T17:01:05.931Z,49.02
2023-05-12T17:03:36.330Z,49.01
2023-05-12T17:06:05.217Z,49.53
2023-05-12T17:08:36.219Z,49.68
2023-05-12T17:11:05.803Z,49.36
2023-05-12T17:13:37.269Z,48.67
2023-05-12T17:16:06.208Z,48.76
2023-05-12T17:21:11.560Z,49.10
2023-05-12T17:23:41.140Z,48.94
2023-05-12T17:26:09.327Z,49.34
2023-05-12T17:28:37.751Z,49.55
2023-05-12T17:31:10.491Z,49.77
2023-05-12T17:33:40.321Z,49.90
2023-05-12T17:36:12.953Z,49.40
2023-05-12T17:38:42.792Z,49.62
2023-05-12T17:41:11.420Z,50.20
2023-05-12T17:43:39.811Z,50.00
2023-05-12T17:46:09.261Z,49.91
2023-05-12T17:48:38.825Z,49.90
2023-05-12T17:51:13.639Z,49.99
2023-05-12T17:53:42.163Z,50.16
2023-05-12T17:56:10.710Z,49.31
2023-05-12T17:58:39.443Z,49.04
2023-05-12T18:01:08.266Z,49.35
2023-05-12T18:03:37.096Z,49.80
2023-05-12T18:06:06.333Z,49.98
2023-05-12T18:08:35.925Z,49.98
2023-05-12T18:11:04.106Z,50.27
2023-05-12T18:13:33.152Z,50.08
2023-05-12T18:16:04.134Z,49.34
2023-05-12T18:18:35.736Z,49.20
2023-05-12T18:21:04.209Z,49.33
2023-05-12T18:23:33.088Z,49.20
2023-05-12T18:26:05.250Z,49.46
2023-05-12T18:28:33.448Z,48.95
2023-05-12T18:31:15.151Z,48.97
2023-05-12T18:33:47.232Z,49.07
2023-05-12T18:36:15.921Z,48.81
2023-05-12T18:38:44.132Z,49.46
2023-05-12T18:41:14.172Z,49.46
2023-05-12T18:43:44.544Z,49.28
2023-05-12T18:46:12.953Z,49.36
2023-05-12T18:48:41.629Z,49.83
2023-05-12T18:51:10.827Z,49.92
2023-05-12T18:53:39.316Z,50.13
2023-05-12T18:56:11.230Z,50.45
2023-05-12T18:58:40.985Z,50.93
2023-05-12T19:01:09.814Z,51.52
2023-05-12T19:03:38.084Z,51.79
2023-05-12T19:06:07.474Z,52.18
2023-05-12T19:08:35.731Z,52.50
2023-05-12T19:11:04.589Z,53.17
2023-05-12T19:13:32.882Z,53.71
2023-05-12T19:16:03.218Z,54.09
2023-05-12T19:18:33.574Z,54.59
2023-05-12T19:21:07.229Z,54.78
2023-05-12T19:23:35.590Z,55.73
2023-05-12T19:26:03.965Z,56.51
2023-05-12T19:28:35.239Z,56.67
2023-05-12T19:31:05.554Z,57.16
2023-05-12T19:33:35.346Z,57.58
2023-05-12T19:36:03.849Z,57.61
2023-05-12T19:38:34.786Z,58.11
2023-05-12T19:41:03.660Z,59.27
2023-05-12T19:43:32.215Z,60.48
2023-05-12T19:46:00.955Z,61.55
2023-05-12T19:48:31.540Z,62.28
2023-05-12T19:51:00.184Z,62.89
2023-05-12T19:53:28.462Z,63.81
2023-05-12T19:55:56.905Z,65.27
2023-05-12T19:58:25.295Z,66.95
2023-05-12T20:00:54.119Z,68.60
2023-05-12T20:03:23.396Z,69.95
2023-05-12T20:05:53.383Z,70.90
2023-05-12T20:08:21.550Z,71.83
2023-05-12T20:10:50.445Z,72.69
2023-05-12T20:13:18.667Z,73.86
2023-05-12T20:15:46.898Z,74.67
2023-05-12T20:18:17.031Z,75.67
2023-05-12T20:20:48.460Z,76.71
2023-05-12T20:23:18.305Z,76.88
2023-05-12T20:25:46.786Z,77.40
2023-05-12T20:28:15.033Z,77.67
2023-05-12T20:30:43.740Z,78.04
2023-05-12T20:33:12.042Z,78.76
2023-05-12T20:35:40.207Z,78.83
2023-05-12T20:38:08.932Z,79.48
2023-05-12T20:40:40.530Z,80.12
2023-05-12T20:43:09.446Z,81.24
2023-05-12T20:45:37.861Z,81.69
2023-05-12T20:48:06.801Z,81.67
2023-05-12T20:50:35.099Z,82.81
2023-05-12T20:53:03.443Z,83.31
2023-05-12T20:55:33.831Z,84.08
2023-05-12T20:58:03.473Z,85.01
2023-05-12T21:00:34.766Z,85.72
2023-05-12T21:03:04.477Z,87.10
2023-05-12T21:05:33.218Z,87.33
2023-05-12T21:08:01.457Z,87.23
2023-05-12T21:10:29.907Z,87.76
2023-05-12T21:12:58.761Z,87.95
2023-05-12T21:15:29.076Z,88.06
2023-05-12T21:17:58.312Z,88.45
2023-05-12T21:20:26.868Z,88.63
2023-05-12T21:22:59.034Z,88.72
2023-05-12T21:25:27.432Z,88.59
2023-05-12T21:27:55.558Z,89.16
2023-05-12T21:30:23.848Z,89.76
2023-05-12T21:32:53.703Z,90.71
2023-05-12T21:35:21.904Z,90.75
2023-05-12T21:40:34.856Z,91.08
2023-05-12T21:43:03.980Z,91.40
2023-05-12T21:45:34.940Z,91.98
2023-05-12T21:48:06.181Z,92.01
2023-05-12T21:50:34.354Z,92.46
2023-05-12T21:53:06.165Z,91.82
2023-05-12T21:55:34.611Z,92.05
2023-05-12T21:58:02.868Z,92.36
2023-05-12T22:00:34.098Z,93.04
2023-05-12T22:03:06.181Z,93.09
2023-05-12T22:05:34.491Z,93.61
2023-05-12T22:08:03.049Z,93.70
2023-05-12T22:10:32.136Z,94.16
2023-05-12T22:13:01.544Z,94.32
2023-05-12T22:15:31.896Z,94.76
2023-05-12T22:18:00.472Z,96.64
2023-05-12T22:20:31.102Z,97.55
2023-05-12T22:23:01.924Z,97.64
2023-05-12T22:25:31.034Z,97.60
2023-05-12T22:27:59.229Z,97.36
2023-05-12T22:30:27.659Z,97.59
2023-05-12T22:32:56.542Z,97.57
2023-05-12T22:35:24.721Z,97.16
2023-05-12T22:37:54.323Z,96.83
2023-05-12T22:40:23.280Z,97.10
2023-05-12T22:42:51.785Z,97.75
2023-05-12T22:45:19.937Z,98.28
2023-05-12T22:47:48.358Z,98.81
2023-05-12T22:50:16.722Z,99.90
2023-05-12T22:52:45.137Z,100.00
2023-05-12T22:55:15.218Z,100.00
2023-05-12T22:57:46.348Z,100.00
2023-05-12T23:00:15.746Z,100.00
2023-05-12T23:02:44.401Z,100.00
2023-05-12T23:05:12.922Z,100.00
2023-05-12T23:07:41.466Z,100.00
2023-05-12T23:10:10.736Z,100.00
2023-05-12T23:12:40.493Z,100.00
2023-05-12T23:15:09.954Z,100.00
2023-05-12T23:17:38.533Z,100.00
2023-05-12T23:20:08.167Z,100.00
2023-05-12T23:22:36.965Z,100.00
2023-05-12T23:25:07.893Z,100.00
2023-05-12T23:27:37.253Z,100.00
2023-05-12T23:30:08.433Z,100.00
2023-05-12T23:32:39.599Z,100.00
2023-05-12T23:35:09.631Z,100.00
2023-05-12T23:37:37.757Z,100.00
2023-05-12T23:40:10.487Z,100.00
2023-05-12T23:42:38.704Z,100.00
2023-05-12T23:45:09.729Z,100.00
2023-05-12T23:47:41.683Z,100.00
2023-05-12T23:50:10.541Z,100.00
2023-05-12T23:52:38.877Z,100.00
2023-05-12T23:55:08.460Z,100.00
2023-05-12T23:57:37.104Z,100.00
